Alcalde, Kentucky
Current Conditions -  °F | °C
As of 1:55 PM on Tuesday 27 Jan 2015 (Local Time) from KSME Reporting Station
Overcast Overcast  
Wind Chill: 27°   Ceiling: 2100
Heat Index: 32°   Visibility: 10mi
Dew Point: 25°   Wind: 5mph
Humidity: 75%   Direction: 340°NNW
Pressure: 30.06"   Gusts: NA
Location:  37.0813°N, 84.4741°W
Report Text: KSME 271855Z AUTO 34004KT 10SM BKN021 OVC029 00/M04 A3006 RMK AO2
Loading
Personal Weather Stations






























Interactive Weather Map New forecast layout! Learn more

10-Day Weather Forecast

Advertisements
Track Severe Weather on mobile